Time;durP1;ratioP1;P1;durP2;ratioP2;P2;SDS_P1;SDS_P2;PMS_P1;PMS_P2;Temp;Humidity;BMP_temperature;BMP_pressure;BME280_temperature;BME280_humidity;BME280_pressure;Samples;Min_cycle;Max_cycle;Signal;HPM_P1;HPM_P2
2022/04/29 00:00:06;;;;;;;3.80;2.80;;;;;;;;;;4203848;34;20197;-63
2022/04/29 00:33:53;;;;;;;4.80;3.70;;;;;;;;;;4189025;34;20122;-60
2022/04/29 00:36:19;;;;;;;7.50;3.92;;;;;;;;;;4184799;34;20097;-60
2022/04/29 00:38:45;;;;;;;5.35;4.10;;;;;;;;;;4185138;34;20150;-60
2022/04/29 00:41:16;;;;;;;5.72;4.28;;;;;;;;;;4178383;34;20671;-62
2022/04/29 00:43:42;;;;;;;6.00;4.40;;;;;;;;;;4175440;34;20120;-62
2022/04/29 00:46:08;;;;;;;4.85;3.70;;;;;;;;;;4191806;34;20209;-61
2022/04/29 00:48:35;;;;;;;10.90;4.82;;;;;;;;;;4178761;34;20598;-60
2022/04/29 00:51:01;;;;;;;4.57;3.90;;;;;;;;;;4175835;34;20173;-60
2022/04/29 00:53:29;;;;;;;5.85;3.75;;;;;;;;;;4165043;34;20201;-61
2022/04/29 00:55:57;;;;;;;4.40;3.70;;;;;;;;;;4153979;34;20454;-61
2022/04/29 00:58:32;;;;;;;6.40;3.62;;;;;;;;;;4177966;34;20160;-62
2022/04/29 01:01:00;;;;;;;5.12;4.05;;;;;;;;;;4178262;34;20121;-62
2022/04/29 01:03:27;;;;;;;6.22;3.80;;;;;;;;;;4178094;34;20122;-62
2022/04/29 01:05:53;;;;;;;5.70;4.10;;;;;;;;;;4177906;34;20121;-62
2022/04/29 01:08:20;;;;;;;4.82;3.85;;;;;;;;;;4182266;34;20550;-62
2022/04/29 01:10:46;;;;;;;7.82;4.20;;;;;;;;;;4178906;34;20438;-62
2022/04/29 01:13:13;;;;;;;6.07;4.00;;;;;;;;;;4167650;34;20206;-61
2022/04/29 01:15:39;;;;;;;4.80;3.33;;;;;;;;;;4191477;34;20110;-59
2022/04/29 01:18:08;;;;;;;4.28;3.35;;;;;;;;;;4191598;34;20135;-59
2022/04/29 01:20:35;;;;;;;6.00;3.65;;;;;;;;;;4179066;34;20181;-59
2022/04/29 01:23:08;;;;;;;7.30;3.85;;;;;;;;;;4178757;34;20178;-60
2022/04/29 01:25:34;;;;;;;5.07;3.67;;;;;;;;;;4191317;34;20190;-60
2022/04/29 01:28:00;;;;;;;4.22;2.97;;;;;;;;;;4191361;34;20105;-60
2022/04/29 01:30:26;;;;;;;5.72;3.40;;;;;;;;;;4191349;34;20098;-61
2022/04/29 01:32:56;;;;;;;3.55;2.78;;;;;;;;;;4191704;34;20531;-61
2022/04/29 01:35:22;;;;;;;4.82;3.28;;;;;;;;;;4184439;34;20123;-61
2022/04/29 01:37:48;;;;;;;5.37;3.00;;;;;;;;;;4165057;34;20483;-61
2022/04/29 01:40:14;;;;;;;6.35;3.45;;;;;;;;;;4165130;34;20590;-61
2022/04/29 01:42:41;;;;;;;6.00;3.42;;;;;;;;;;4165033;34;20201;-61
2022/04/29 01:45:11;;;;;;;4.57;3.28;;;;;;;;;;4152688;34;20110;-61
2022/04/29 01:47:37;;;;;;;5.30;2.97;;;;;;;;;;4165133;34;20149;-59
2022/04/29 01:50:04;;;;;;;6.03;3.00;;;;;;;;;;4164700;34;20518;-59
2022/04/29 01:52:30;;;;;;;5.80;3.10;;;;;;;;;;4164781;34;20117;-61
2022/04/29 01:54:56;;;;;;;3.55;3.00;;;;;;;;;;4153367;34;20127;-58
2022/04/29 01:57:22;;;;;;;7.35;3.10;;;;;;;;;;4164969;34;20102;-59
2022/04/29 01:59:48;;;;;;;4.37;2.80;;;;;;;;;;4164592;34;20110;-61
2022/04/29 02:02:15;;;;;;;4.25;2.70;;;;;;;;;;4177441;34;20109;-61
2022/04/29 02:04:41;;;;;;;5.95;2.90;;;;;;;;;;4177348;34;20098;-61
2022/04/29 02:07:07;;;;;;;3.20;2.67;;;;;;;;;;4177456;34;20104;-61
2022/04/29 02:09:33;;;;;;;4.90;2.75;;;;;;;;;;4171896;34;20117;-60
2022/04/29 02:12:05;;;;;;;7.90;3.50;;;;;;;;;;4190987;34;20148;-61
2022/04/29 02:14:32;;;;;;;5.15;3.50;;;;;;;;;;4190983;34;20122;-62
2022/04/29 02:16:58;;;;;;;8.88;3.30;;;;;;;;;;4191257;34;20122;-62
2022/04/29 02:19:25;;;;;;;5.90;3.53;;;;;;;;;;4191104;34;20117;-61
2022/04/29 02:21:52;;;;;;;3.97;2.87;;;;;;;;;;4191132;34;20115;-62
2022/04/29 02:24:18;;;;;;;5.50;3.35;;;;;;;;;;4178045;34;20116;-61
2022/04/29 02:26:44;;;;;;;6.87;3.85;;;;;;;;;;4190946;34;20177;-60
2022/04/29 02:29:10;;;;;;;6.85;3.08;;;;;;;;;;4178129;34;20087;-63
2022/04/29 02:31:36;;;;;;;4.15;3.20;;;;;;;;;;4181787;34;20131;-63
2022/04/29 02:34:02;;;;;;;3.80;3.03;;;;;;;;;;4175872;34;20764;-63
2022/04/29 02:36:28;;;;;;;2.85;2.60;;;;;;;;;;4177239;34;20128;-62
2022/04/29 02:38:54;;;;;;;4.87;3.12;;;;;;;;;;4182388;34;20212;-63
2022/04/29 02:41:20;;;;;;;3.75;3.00;;;;;;;;;;4190972;34;20114;-61
2022/04/29 02:43:46;;;;;;;4.70;2.95;;;;;;;;;;4178338;34;20132;-63
2022/04/29 02:46:12;;;;;;;5.05;2.97;;;;;;;;;;4190858;34;20136;-62
2022/04/29 02:48:38;;;;;;;5.53;3.12;;;;;;;;;;4178425;34;20141;-59
2022/04/29 02:51:07;;;;;;;4.65;3.50;;;;;;;;;;4177157;34;20177;-59
2022/04/29 02:53:33;;;;;;;6.07;2.87;;;;;;;;;;4176924;34;20222;-58
2022/04/29 02:55:58;;;;;;;7.70;2.80;;;;;;;;;;4176585;34;20522;-58
2022/04/29 02:58:24;;;;;;;5.10;2.70;;;;;;;;;;4164056;34;20174;-58
2022/04/29 03:00:50;;;;;;;4.30;2.60;;;;;;;;;;4176862;34;20098;-59
2022/04/29 03:03:16;;;;;;;6.43;3.17;;;;;;;;;;4176868;34;20510;-59
2022/04/29 03:05:42;;;;;;;5.87;2.95;;;;;;;;;;4176543;34;20098;-59
2022/04/29 03:08:08;;;;;;;3.67;2.72;;;;;;;;;;4176814;34;20540;-60
2022/04/29 03:10:36;;;;;;;4.47;2.72;;;;;;;;;;4176708;34;20132;-59
2022/04/29 03:13:02;;;;;;;7.05;2.47;;;;;;;;;;4164183;34;20717;-59
2022/04/29 03:15:28;;;;;;;3.33;2.55;;;;;;;;;;4176700;34;20102;-59
2022/04/29 03:20:40;;;;;;;4.03;2.62;;;;;;;;;;4166268;34;20098;-58
2022/04/29 03:23:07;;;;;;;3.53;3.12;;;;;;;;;;4176918;34;20134;-58
2022/04/29 03:25:34;;;;;;;3.17;2.67;;;;;;;;;;4176633;34;20198;-59
2022/04/29 03:28:00;;;;;;;9.10;3.53;;;;;;;;;;4164351;34;20104;-59
2022/04/29 03:30:26;;;;;;;4.05;2.95;;;;;;;;;;4176464;34;20098;-58
2022/04/29 03:32:54;;;;;;;21.92;4.12;;;;;;;;;;4163863;34;20121;-59
2022/04/29 03:35:20;;;;;;;4.70;3.35;;;;;;;;;;4176445;34;20129;-58
2022/04/29 03:37:51;;;;;;;2.90;2.60;;;;;;;;;;4176469;34;20169;-59
2022/04/29 03:40:21;;;;;;;3.62;2.90;;;;;;;;;;4176684;34;20087;-59
2022/04/29 03:42:52;;;;;;;3.83;2.75;;;;;;;;;;4176466;34;20107;-58
2022/04/29 03:45:19;;;;;;;12.00;4.55;;;;;;;;;;4174285;34;20126;-59
2022/04/29 03:47:45;;;;;;;3.42;2.72;;;;;;;;;;4176484;34;20110;-58
2022/04/29 03:50:12;;;;;;;3.47;2.85;;;;;;;;;;4176044;34;20093;-59
2022/04/29 03:52:49;;;;;;;4.32;2.85;;;;;;;;;;4176348;34;20110;-59
2022/04/29 03:55:15;;;;;;;3.97;2.70;;;;;;;;;;4175873;34;20534;-59
2022/04/29 03:57:42;;;;;;;3.78;2.40;;;;;;;;;;4151971;34;20121;-59
2022/04/29 04:00:09;;;;;;;6.95;2.50;;;;;;;;;;4175895;34;20521;-58
2022/04/29 04:02:34;;;;;;;2.40;2.20;;;;;;;;;;4163315;34;20130;-59
2022/04/29 04:05:00;;;;;;;3.85;2.22;;;;;;;;;;4176192;34;20470;-59
2022/04/29 04:07:26;;;;;;;2.35;2.05;;;;;;;;;;4164352;34;20118;-59
2022/04/29 04:09:52;;;;;;;3.70;2.20;;;;;;;;;;4178225;34;20174;-58
2022/04/29 04:12:18;;;;;;;4.40;2.25;;;;;;;;;;4165638;34;20623;-60
2022/04/29 04:14:44;;;;;;;4.82;2.28;;;;;;;;;;4178307;34;20137;-59
2022/04/29 04:17:11;;;;;;;4.32;2.12;;;;;;;;;;4177131;34;20559;-60
2022/04/29 04:19:37;;;;;;;4.90;2.75;;;;;;;;;;4177689;34;20111;-60
2022/04/29 04:22:03;;;;;;;22.05;2.87;;;;;;;;;;4178147;34;20127;-61
2022/04/29 04:24:29;;;;;;;54.22;6.22;;;;;;;;;;4165673;34;20433;-61
2022/04/29 04:26:56;;;;;;;6.22;2.50;;;;;;;;;;4178419;34;20110;-60
2022/04/29 04:29:22;;;;;;;4.82;2.60;;;;;;;;;;4178542;34;20106;-61
2022/04/29 04:31:48;;;;;;;4.37;2.37;;;;;;;;;;4178040;34;20459;-61
2022/04/29 04:36:59;;;;;;;6.40;2.45;;;;;;;;;;4165236;34;20133;-63
2022/04/29 04:39:25;;;;;;;3.08;2.28;;;;;;;;;;4178088;34;20491;-64
2022/04/29 04:41:51;;;;;;;4.53;2.37;;;;;;;;;;4165235;34;20486;-62
2022/04/29 04:44:18;;;;;;;3.40;2.22;;;;;;;;;;4178088;34;20125;-62
2022/04/29 04:46:44;;;;;;;6.00;2.50;;;;;;;;;;4178048;34;20214;-62
2022/04/29 04:49:14;;;;;;;7.53;2.58;;;;;;;;;;4178266;34;20098;-60
2022/04/29 04:51:40;;;;;;;3.10;2.03;;;;;;;;;;4154096;34;20129;-64
2022/04/29 04:54:06;;;;;;;3.67;2.35;;;;;;;;;;4165452;34;20555;-61
2022/04/29 04:56:32;;;;;;;3.00;2.00;;;;;;;;;;4165094;34;20121;-62
2022/04/29 04:58:58;;;;;;;3.40;2.00;;;;;;;;;;4177906;34;20474;-61
2022/04/29 05:01:24;;;;;;;2.75;2.12;;;;;;;;;;4177709;34;20170;-62
2022/04/29 05:03:50;;;;;;;4.10;2.37;;;;;;;;;;4178062;34;20102;-61
2022/04/29 05:06:16;;;;;;;4.22;2.22;;;;;;;;;;4178076;34;20122;-61
2022/04/29 05:08:41;;;;;;;3.33;2.20;;;;;;;;;;4177794;34;20133;-61
2022/04/29 05:11:07;;;;;;;8.40;2.40;;;;;;;;;;4178020;34;20551;-62
2022/04/29 05:13:33;;;;;;;8.85;2.40;;;;;;;;;;4165001;34;20539;-62
2022/04/29 05:15:59;;;;;;;2.62;2.10;;;;;;;;;;4177778;34;20583;-63
2022/04/29 05:18:25;;;;;;;4.03;2.30;;;;;;;;;;4165027;34;20523;-63
2022/04/29 05:20:51;;;;;;;3.10;1.87;;;;;;;;;;4177887;34;20095;-62
2022/04/29 05:23:17;;;;;;;5.95;2.35;;;;;;;;;;4177781;34;20209;-62
2022/04/29 05:25:43;;;;;;;2.72;2.22;;;;;;;;;;4177546;34;20286;-62
2022/04/29 05:28:09;;;;;;;2.08;1.83;;;;;;;;;;4177880;34;20138;-63
2022/04/29 05:30:36;;;;;;;6.72;2.17;;;;;;;;;;4177593;34;20128;-60
2022/04/29 05:33:02;;;;;;;4.10;2.10;;;;;;;;;;4177571;34;20166;-60
2022/04/29 05:35:28;;;;;;;1.90;1.80;;;;;;;;;;4164926;34;20110;-62
2022/04/29 05:37:55;;;;;;;2.97;2.03;;;;;;;;;;4165004;34;20202;-62
2022/04/29 05:43:07;;;;;;;2.50;2.10;;;;;;;;;;4161293;34;20114;-62
2022/04/29 05:45:33;;;;;;;3.25;2.10;;;;;;;;;;4177519;34;20180;-61
2022/04/29 05:47:59;;;;;;;3.28;2.00;;;;;;;;;;4164947;34;20134;-62
2022/04/29 05:50:25;;;;;;;4.45;2.00;;;;;;;;;;4177678;34;20126;-59
2022/04/29 05:52:51;;;;;;;3.08;2.12;;;;;;;;;;4177408;34;20521;-61
2022/04/29 05:55:17;;;;;;;2.97;1.95;;;;;;;;;;4177562;34;20194;-61
2022/04/29 05:57:43;;;;;;;4.87;2.10;;;;;;;;;;4177760;34;20169;-61
2022/04/29 06:00:10;;;;;;;2.75;1.80;;;;;;;;;;4177364;34;20134;-61
2022/04/29 06:02:38;;;;;;;4.70;2.00;;;;;;;;;;4177565;34;20540;-61
2022/04/29 06:05:05;;;;;;;7.47;2.22;;;;;;;;;;4177581;34;20130;-61
2022/04/29 06:07:31;;;;;;;1.90;1.80;;;;;;;;;;4177362;34;20118;-59
2022/04/29 06:09:57;;;;;;;5.45;2.00;;;;;;;;;;4164826;34;20102;-61
2022/04/29 06:12:23;;;;;;;3.92;2.00;;;;;;;;;;4177349;34;20185;-61
2022/04/29 06:14:49;;;;;;;4.32;1.90;;;;;;;;;;4177250;34;20106;-60
2022/04/29 06:17:15;;;;;;;2.75;2.30;;;;;;;;;;4177166;34;20113;-61
2022/04/29 06:19:41;;;;;;;16.65;3.03;;;;;;;;;;4177441;34;20198;-61
2022/04/29 06:22:07;;;;;;;3.97;1.90;;;;;;;;;;4177258;34;20102;-62
2022/04/29 06:24:34;;;;;;;2.40;1.92;;;;;;;;;;4164402;34;20479;-63
2022/04/29 06:27:01;;;;;;;3.12;2.15;;;;;;;;;;4177170;34;20112;-62
2022/04/29 06:29:27;;;;;;;5.30;2.17;;;;;;;;;;4164121;34;20103;-62
2022/04/29 06:31:53;;;;;;;4.85;2.10;;;;;;;;;;4164113;34;20112;-65
2022/04/29 06:34:19;;;;;;;2.60;1.77;;;;;;;;;;4164268;34;20450;-63
2022/04/29 06:36:45;;;;;;;2.97;1.90;;;;;;;;;;4164320;34;20111;-64
2022/04/29 06:39:11;;;;;;;4.70;2.15;;;;;;;;;;4177031;34;20522;-63
2022/04/29 06:41:37;;;;;;;8.98;3.00;;;;;;;;;;4177163;34;20118;-63
2022/04/29 06:44:04;;;;;;;2.42;2.20;;;;;;;;;;4177123;34;20598;-63
2022/04/29 06:46:30;;;;;;;3.33;2.10;;;;;;;;;;4177229;34;20110;-63
2022/04/29 06:48:56;;;;;;;2.47;2.03;;;;;;;;;;4164536;34;20384;-63
2022/04/29 06:51:22;;;;;;;3.72;2.10;;;;;;;;;;4176961;34;20117;-64
2022/04/29 06:53:49;;;;;;;6.47;2.53;;;;;;;;;;4176950;34;20128;-63
2022/04/29 06:56:15;;;;;;;2.83;2.37;;;;;;;;;;4164068;34;20525;-63
2022/04/29 06:58:41;;;;;;;4.03;2.40;;;;;;;;;;4176815;34;20133;-62
2022/04/29 07:01:07;;;;;;;3.42;2.55;;;;;;;;;;4176793;34;20202;-63
2022/04/29 07:03:33;;;;;;;2.20;2.00;;;;;;;;;;4152689;34;20102;-62
2022/04/29 07:06:01;;;;;;;4.05;1.92;;;;;;;;;;4176821;34;20126;-62
2022/04/29 07:08:29;;;;;;;3.20;2.25;;;;;;;;;;4177037;34;20093;-62
2022/04/29 07:10:56;;;;;;;5.25;2.45;;;;;;;;;;4176649;34;20134;-62
2022/04/29 07:13:22;;;;;;;5.20;2.90;;;;;;;;;;4163900;34;20118;-61
2022/04/29 07:15:48;;;;;;;2.67;2.30;;;;;;;;;;4163947;34;20669;-63
2022/04/29 07:18:16;;;;;;;3.03;1.95;;;;;;;;;;4152677;34;20203;-60
2022/04/29 07:20:42;;;;;;;3.53;2.40;;;;;;;;;;4176959;34;20189;-62
2022/04/29 07:23:08;;;;;;;2.53;2.03;;;;;;;;;;4176881;34;20113;-63
2022/04/29 07:25:34;;;;;;;2.87;1.90;;;;;;;;;;4176885;34;20136;-64
2022/04/29 07:28:00;;;;;;;3.05;2.20;;;;;;;;;;4176455;34;20127;-62
2022/04/29 07:30:26;;;;;;;3.65;2.60;;;;;;;;;;4176667;34;20122;-61
2022/04/29 07:32:53;;;;;;;2.30;2.05;;;;;;;;;;4163772;34;20747;-63
2022/04/29 07:43:33;;;;;;;2.75;1.87;;;;;;;;;;4167292;34;20536;-60
2022/04/29 07:45:59;;;;;;;2.20;1.77;;;;;;;;;;4178621;34;20138;-61
2022/04/29 07:48:25;;;;;;;3.15;2.10;;;;;;;;;;4178421;34;20179;-61
2022/04/29 07:50:51;;;;;;;3.47;2.45;;;;;;;;;;4165726;34;20114;-62
2022/04/29 07:53:18;;;;;;;3.58;2.35;;;;;;;;;;4178436;34;20145;-60
2022/04/29 07:55:44;;;;;;;2.60;2.33;;;;;;;;;;4178717;34;20144;-61
2022/04/29 07:58:10;;;;;;;4.03;2.65;;;;;;;;;;4178293;34;20098;-61
2022/04/29 08:00:39;;;;;;;6.20;2.90;;;;;;;;;;4178589;34;20130;-62
2022/04/29 08:03:05;;;;;;;7.90;3.17;;;;;;;;;;4165957;34;20556;-60
2022/04/29 08:05:32;;;;;;;3.12;2.70;;;;;;;;;;4166031;34;20117;-60
2022/04/29 08:08:00;;;;;;;3.20;2.90;;;;;;;;;;4178386;34;20522;-60
2022/04/29 08:10:28;;;;;;;3.33;2.87;;;;;;;;;;4178408;34;20102;-59
2022/04/29 08:12:54;;;;;;;4.00;2.80;;;;;;;;;;4165700;34;20142;-60
2022/04/29 08:15:20;;;;;;;8.48;3.17;;;;;;;;;;4178361;34;20114;-61
2022/04/29 08:17:46;;;;;;;3.67;3.30;;;;;;;;;;4165687;34;20126;-60
2022/04/29 08:20:12;;;;;;;13.07;4.25;;;;;;;;;;4165883;34;20110;-61
2022/04/29 08:22:40;;;;;;;5.37;4.00;;;;;;;;;;4178334;34;20110;-63
2022/04/29 08:25:06;;;;;;;3.75;3.22;;;;;;;;;;4178593;34;20137;-60
2022/04/29 08:27:32;;;;;;;3.35;3.00;;;;;;;;;;4178083;34;20224;-60
2022/04/29 08:29:58;;;;;;;5.15;4.07;;;;;;;;;;4177792;34;20519;-61
2022/04/29 08:32:24;;;;;;;4.97;3.53;;;;;;;;;;4178108;34;20102;-60
2022/04/29 08:34:51;;;;;;;5.12;3.90;;;;;;;;;;4178274;34;20186;-60
2022/04/29 08:37:18;;;;;;;5.43;3.72;;;;;;;;;;4178164;34;20103;-61
2022/04/29 08:39:44;;;;;;;7.18;3.33;;;;;;;;;;4178179;34;20102;-61
2022/04/29 08:42:10;;;;;;;4.28;3.12;;;;;;;;;;4178060;34;20612;-61
2022/04/29 08:44:40;;;;;;;3.80;2.97;;;;;;;;;;4154432;34;20190;-61
2022/04/29 08:47:08;;;;;;;6.70;3.30;;;;;;;;;;4178119;34;20126;-61
2022/04/29 08:49:34;;;;;;;3.97;3.30;;;;;;;;;;4178099;34;20535;-61
2022/04/29 08:52:01;;;;;;;3.65;2.70;;;;;;;;;;4165336;34;20113;-61
2022/04/29 09:00:01;;;;;;;3.40;3.10;;;;;;;;;;4167493;34;20111;-61
2022/04/29 09:02:29;;;;;;;4.43;3.15;;;;;;;;;;4178183;34;20142;-61
2022/04/29 09:04:59;;;;;;;5.70;3.17;;;;;;;;;;4165505;34;20095;-61
2022/04/29 09:07:53;;;;;;;4.10;3.25;;;;;;;;;;4177752;34;20118;-61
2022/04/29 09:10:20;;;;;;;7.62;3.97;;;;;;;;;;4163327;34;20110;-61
2022/04/29 09:12:47;;;;;;;4.40;3.12;;;;;;;;;;4175967;34;20129;-62
2022/04/29 09:15:14;;;;;;;4.00;3.30;;;;;;;;;;4175842;34;20113;-62
2022/04/29 09:17:48;;;;;;;5.57;4.22;;;;;;;;;;4176238;34;20114;-63
2022/04/29 09:20:19;;;;;;;11.25;6.07;;;;;;;;;;4178023;34;20195;-62
2022/04/29 09:22:47;;;;;;;7.97;5.68;;;;;;;;;;4165010;34;20231;-63
2022/04/29 09:25:14;;;;;;;7.95;4.80;;;;;;;;;;4177730;34;20106;-61
2022/04/29 09:28:00;;;;;;;16.02;13.35;;;;;;;;;;4165039;34;20126;-62
2022/04/29 09:30:40;;;;;;;17.60;11.50;;;;;;;;;;4177769;34;20201;-62
2022/04/29 09:33:17;;;;;;;16.00;12.82;;;;;;;;;;4177346;34;20523;-61
2022/04/29 09:35:45;;;;;;;17.73;12.63;;;;;;;;;;4165055;34;20093;-62
2022/04/29 09:41:00;;;;;;;20.92;14.65;;;;;;;;;;4174836;34;20136;-61
2022/04/29 09:43:37;;;;;;;18.23;13.30;;;;;;;;;;4174438;34;20681;-61
2022/04/29 09:46:19;;;;;;;19.02;12.35;;;;;;;;;;4174665;34;20114;-60
2022/04/29 09:49:03;;;;;;;13.00;7.47;;;;;;;;;;4172945;34;20122;-60
2022/04/29 09:51:50;;;;;;;12.98;8.60;;;;;;;;;;4161750;34;20110;-60
2022/04/29 09:54:26;;;;;;;12.60;8.93;;;;;;;;;;4163711;34;20242;-60
2022/04/29 09:57:13;;;;;;;13.23;10.05;;;;;;;;;;4177336;34;20215;-60
2022/04/29 09:59:48;;;;;;;14.20;10.15;;;;;;;;;;4164997;34;20492;-61
2022/04/29 10:02:16;;;;;;;13.17;9.27;;;;;;;;;;4164881;34;20454;-61
2022/04/29 10:04:44;;;;;;;15.55;9.57;;;;;;;;;;4176909;34;20182;-61
2022/04/29 10:07:12;;;;;;;11.73;9.65;;;;;;;;;;4177293;34;20115;-61
2022/04/29 10:09:43;;;;;;;13.93;9.75;;;;;;;;;;4177506;34;20133;-61
2022/04/29 10:12:14;;;;;;;12.13;8.05;;;;;;;;;;4177252;34;20116;-61
2022/04/29 10:14:41;;;;;;;9.50;5.82;;;;;;;;;;4177348;34;20102;-61
2022/04/29 10:22:46;;;;;;;14.55;9.57;;;;;;;;;;4177275;34;20538;-60
2022/04/29 10:25:13;;;;;;;14.25;9.55;;;;;;;;;;4154206;34;20118;-60
2022/04/29 10:27:40;;;;;;;14.87;10.50;;;;;;;;;;4175008;34;20102;-60
2022/04/29 10:30:10;;;;;;;11.40;7.93;;;;;;;;;;4164624;34;20443;-60
2022/04/29 10:33:01;;;;;;;16.37;9.05;;;;;;;;;;4181066;34;20112;-60
2022/04/29 10:35:46;;;;;;;10.43;6.85;;;;;;;;;;4190790;34;20189;-60
2022/04/29 10:38:31;;;;;;;13.77;8.20;;;;;;;;;;4190624;34;20126;-59
2022/04/29 10:41:18;;;;;;;13.98;7.37;;;;;;;;;;4187348;34;20614;-60
2022/04/29 10:44:03;;;;;;;12.30;7.68;;;;;;;;;;4176972;34;20121;-59
2022/04/29 10:46:36;;;;;;;9.70;5.85;;;;;;;;;;4176854;34;20121;-59
2022/04/29 10:49:22;;;;;;;9.23;5.47;;;;;;;;;;4172665;34;20574;-58
2022/04/29 10:51:56;;;;;;;7.80;5.60;;;;;;;;;;4172906;34;20242;-59
2022/04/29 10:54:34;;;;;;;8.80;5.53;;;;;;;;;;4172906;34;20118;-58
2022/04/29 10:57:02;;;;;;;7.25;4.15;;;;;;;;;;4172619;34;20124;-59
2022/04/29 10:59:28;;;;;;;5.28;3.80;;;;;;;;;;4183925;34;20122;-59
2022/04/29 11:02:13;;;;;;;5.75;4.10;;;;;;;;;;4186137;34;20213;-59
2022/04/29 11:04:43;;;;;;;3.62;3.33;;;;;;;;;;4186446;34;20145;-59
2022/04/29 11:07:39;;;;;;;4.25;3.50;;;;;;;;;;4162119;34;20110;-60
2022/04/29 11:10:07;;;;;;;4.35;2.97;;;;;;;;;;4173452;34;20114;-57
2022/04/29 11:12:39;;;;;;;6.45;3.37;;;;;;;;;;4177333;34;20114;-59
2022/04/29 11:15:23;;;;;;;4.43;3.70;;;;;;;;;;4190455;34;20129;-59
2022/04/29 11:17:49;;;;;;;10.30;4.60;;;;;;;;;;4177804;34;20100;-58
2022/04/29 11:20:21;;;;;;;7.32;4.40;;;;;;;;;;4190579;34;20210;-59
2022/04/29 11:25:57;;;;;;;12.88;4.65;;;;;;;;;;4181623;34;20130;-61
2022/04/29 11:28:24;;;;;;;8.13;4.07;;;;;;;;;;4176558;34;20544;-61
2022/04/29 11:31:01;;;;;;;6.62;3.65;;;;;;;;;;4176638;34;20627;-60
2022/04/29 11:33:28;;;;;;;7.30;3.95;;;;;;;;;;4152547;34;20465;-62
2022/04/29 11:36:01;;;;;;;6.65;4.70;;;;;;;;;;4176498;34;20189;-59
2022/04/29 11:38:30;;;;;;;8.02;5.12;;;;;;;;;;4163938;34;20506;-60
2022/04/29 11:40:59;;;;;;;10.50;4.10;;;;;;;;;;4176521;34;20110;-60
2022/04/29 11:43:25;;;;;;;12.50;4.47;;;;;;;;;;4176425;34;20147;-60
2022/04/29 11:46:02;;;;;;;6.78;4.43;;;;;;;;;;4163739;34;20617;-60
2022/04/29 11:48:28;;;;;;;7.68;4.07;;;;;;;;;;4176302;34;20515;-60
2022/04/29 11:50:57;;;;;;;6.03;4.12;;;;;;;;;;4176350;34;20114;-60
2022/04/29 11:53:23;;;;;;;8.55;4.93;;;;;;;;;;4163596;34;20550;-60
2022/04/29 11:55:53;;;;;;;10.20;4.85;;;;;;;;;;4176305;34;20116;-60
2022/04/29 11:58:19;;;;;;;7.28;5.40;;;;;;;;;;4176216;34;20138;-60
2022/04/29 12:00:54;;;;;;;8.60;6.53;;;;;;;;;;4188053;34;20094;-60
2022/04/29 12:03:21;;;;;;;9.10;5.95;;;;;;;;;;4189959;34;20106;-59
2022/04/29 12:05:48;;;;;;;8.27;5.50;;;;;;;;;;4162782;34;20201;-59
2022/04/29 12:08:14;;;;;;;10.82;6.62;;;;;;;;;;4151966;34;20086;-60
2022/04/29 12:10:45;;;;;;;10.23;7.30;;;;;;;;;;4170563;34;20187;-61
2022/04/29 12:13:11;;;;;;;9.70;6.30;;;;;;;;;;4176160;34;20137;-61
2022/04/29 12:15:39;;;;;;;9.15;6.00;;;;;;;;;;4176049;34;20117;-61
2022/04/29 12:18:08;;;;;;;7.70;5.65;;;;;;;;;;4162953;34;20130;-60
2022/04/29 12:20:34;;;;;;;6.40;5.10;;;;;;;;;;4175790;34;20440;-60
2022/04/29 12:23:16;;;;;;;7.90;5.20;;;;;;;;;;4175877;34;20110;-60
2022/04/29 12:25:45;;;;;;;6.55;4.90;;;;;;;;;;4174674;34;20483;-63
2022/04/29 12:28:22;;;;;;;6.45;4.70;;;;;;;;;;4163648;34;20093;-59
2022/04/29 12:36:58;;;;;;;8.45;4.80;;;;;;;;;;4177956;34;20109;-60
2022/04/29 12:39:51;;;;;;;6.25;5.20;;;;;;;;;;4178010;34;20125;-60
2022/04/29 12:42:20;;;;;;;8.63;4.80;;;;;;;;;;4163167;34;20210;-60
2022/04/29 12:45:14;;;;;;;7.53;4.60;;;;;;;;;;4165443;34;20115;-60
2022/04/29 12:47:52;;;;;;;7.65;5.07;;;;;;;;;;4177880;34;20189;-61
2022/04/29 12:50:28;;;;;;;5.10;3.83;;;;;;;;;;4154217;34;20108;-60
2022/04/29 12:52:57;;;;;;;6.97;5.15;;;;;;;;;;4165296;34;20138;-59
2022/04/29 12:55:24;;;;;;;6.55;3.37;;;;;;;;;;4176050;34;20501;-60
2022/04/29 12:57:50;;;;;;;4.40;3.33;;;;;;;;;;4177683;34;20107;-60
2022/04/29 13:00:26;;;;;;;3.05;2.67;;;;;;;;;;4177533;34;20559;-61
2022/04/29 13:03:03;;;;;;;6.50;3.10;;;;;;;;;;4153871;34;20106;-61
2022/04/29 13:05:29;;;;;;;6.32;2.95;;;;;;;;;;4165016;34;20106;-62
2022/04/29 13:07:56;;;;;;;30.52;4.82;;;;;;;;;;4177201;34;20098;-60
2022/04/29 13:10:22;;;;;;;3.58;2.72;;;;;;;;;;4177307;34;20137;-60
2022/04/29 13:12:49;;;;;;;4.03;2.97;;;;;;;;;;4165107;34;20585;-60
2022/04/29 13:15:16;;;;;;;3.80;2.60;;;;;;;;;;4177776;34;20117;-59
2022/04/29 13:17:42;;;;;;;3.30;2.42;;;;;;;;;;4165397;34;20110;-59
2022/04/29 13:20:08;;;;;;;3.28;2.55;;;;;;;;;;4165239;34;20114;-60
2022/04/29 13:22:39;;;;;;;6.97;2.70;;;;;;;;;;4176136;34;20129;-60
2022/04/29 13:25:09;;;;;;;6.15;2.60;;;;;;;;;;4159439;34;20510;-61
2022/04/29 13:27:35;;;;;;;6.85;3.90;;;;;;;;;;4141701;34;20107;-61
2022/04/29 13:30:11;;;;;;;5.00;3.17;;;;;;;;;;4164968;34;20121;-60
2022/04/29 13:32:38;;;;;;;4.28;3.33;;;;;;;;;;4177493;34;20106;-61
2022/04/29 13:35:06;;;;;;;3.40;2.97;;;;;;;;;;4177539;34;20222;-60
2022/04/29 13:37:35;;;;;;;6.80;3.37;;;;;;;;;;4165086;34;20106;-59
2022/04/29 13:40:11;;;;;;;6.03;3.20;;;;;;;;;;4177216;34;20609;-59
2022/04/29 13:42:38;;;;;;;6.25;3.20;;;;;;;;;;4177011;34;20221;-60
2022/04/29 13:45:05;;;;;;;3.47;2.80;;;;;;;;;;4177326;34;20506;-61
2022/04/29 13:47:35;;;;;;;5.28;3.00;;;;;;;;;;4164128;34;20475;-61
2022/04/29 13:50:01;;;;;;;4.85;2.58;;;;;;;;;;4164674;34;20099;-60
2022/04/29 13:55:12;;;;;;;5.47;3.65;;;;;;;;;;4177394;34;20093;-58
2022/04/29 13:57:39;;;;;;;4.07;2.90;;;;;;;;;;4176990;34;20145;-61
2022/04/29 14:00:06;;;;;;;7.28;3.80;;;;;;;;;;4164659;34;20102;-60
2022/04/29 14:02:32;;;;;;;4.90;3.25;;;;;;;;;;4177472;34;20557;-61
2022/04/29 14:05:01;;;;;;;6.78;2.85;;;;;;;;;;4164912;34;20109;-61
2022/04/29 14:07:27;;;;;;;3.58;2.95;;;;;;;;;;4160182;34;20129;-60
2022/04/29 14:09:52;;;;;;;4.70;2.85;;;;;;;;;;4173006;34;20111;-60
2022/04/29 14:12:20;;;;;;;4.32;2.70;;;;;;;;;;4172996;34;20132;-60
2022/04/29 14:14:46;;;;;;;4.30;3.35;;;;;;;;;;4173056;34;20120;-60
2022/04/29 14:17:14;;;;;;;3.92;3.15;;;;;;;;;;4173138;34;20134;-60
2022/04/29 14:19:40;;;;;;;3.47;2.83;;;;;;;;;;4173017;34;20106;-60
2022/04/29 14:22:06;;;;;;;4.45;2.87;;;;;;;;;;4177310;34;20527;-60
2022/04/29 14:24:35;;;;;;;3.70;2.65;;;;;;;;;;4164521;34;20439;-61
2022/04/29 14:27:02;;;;;;;6.95;3.35;;;;;;;;;;4177047;34;20110;-59
2022/04/29 14:29:28;;;;;;;8.13;2.90;;;;;;;;;;4177319;34;20126;-59
2022/04/29 14:31:56;;;;;;;5.03;3.40;;;;;;;;;;4162292;34;20106;-61
2022/04/29 14:34:23;;;;;;;5.37;3.20;;;;;;;;;;4176851;34;20122;-60
2022/04/29 14:36:49;;;;;;;5.32;3.03;;;;;;;;;;4174965;34;20558;-60
2022/04/29 14:39:16;;;;;;;4.82;3.28;;;;;;;;;;4164096;34;20123;-60
2022/04/29 14:41:46;;;;;;;5.10;3.00;;;;;;;;;;4164291;34;20109;-60
2022/04/29 14:44:12;;;;;;;4.47;2.90;;;;;;;;;;4177010;34;20116;-60
2022/04/29 14:46:41;;;;;;;5.78;3.85;;;;;;;;;;4176747;34;20111;-62
2022/04/29 14:49:08;;;;;;;6.03;3.65;;;;;;;;;;4176893;34;20106;-61
2022/04/29 14:51:34;;;;;;;5.05;3.85;;;;;;;;;;4176415;34;20114;-64
2022/04/29 14:54:00;;;;;;;7.32;3.42;;;;;;;;;;4160647;34;20125;-62
2022/04/29 14:56:26;;;;;;;4.87;3.55;;;;;;;;;;4176706;34;20126;-59
2022/04/29 14:58:51;;;;;;;6.05;3.58;;;;;;;;;;4177018;34;20527;-61
2022/04/29 15:01:18;;;;;;;7.50;3.58;;;;;;;;;;4174428;34;20126;-61
2022/04/29 15:03:45;;;;;;;5.05;3.40;;;;;;;;;;4176903;34;20189;-62
2022/04/29 15:06:11;;;;;;;6.87;4.10;;;;;;;;;;4163829;34;20168;-60
2022/04/29 15:08:37;;;;;;;7.93;3.72;;;;;;;;;;4163933;34;20183;-61
2022/04/29 15:16:46;;;;;;;4.90;3.63;;;;;;;;;;4176757;34;20095;-60
2022/04/29 15:19:12;;;;;;;5.12;3.50;;;;;;;;;;4163835;34;20128;-61
2022/04/29 15:21:38;;;;;;;6.75;3.80;;;;;;;;;;4176646;34;20098;-60
2022/04/29 15:24:04;;;;;;;9.75;4.45;;;;;;;;;;4176914;34;20116;-60
2022/04/29 15:26:30;;;;;;;8.65;3.62;;;;;;;;;;4176505;34;20126;-61
2022/04/29 15:28:56;;;;;;;6.35;3.50;;;;;;;;;;4174659;34;20767;-62
2022/04/29 15:31:22;;;;;;;7.30;3.37;;;;;;;;;;4161890;34;20117;-61
2022/04/29 15:33:48;;;;;;;11.10;4.30;;;;;;;;;;4176372;34;20102;-65
2022/04/29 15:36:14;;;;;;;8.15;4.30;;;;;;;;;;4176013;34;20611;-64
2022/04/29 15:38:40;;;;;;;11.02;5.85;;;;;;;;;;4163884;34;20122;-67
2022/04/29 15:41:06;;;;;;;14.35;8.07;;;;;;;;;;4163782;34;20715;-64
2022/04/29 15:43:32;;;;;;;16.73;10.85;;;;;;;;;;4163616;34;20129;-64
2022/04/29 15:45:58;;;;;;;19.23;12.18;;;;;;;;;;4176274;34;20122;-64
2022/04/29 15:48:24;;;;;;;20.15;11.20;;;;;;;;;;4162937;34;20091;-59
2022/04/29 15:50:51;;;;;;;24.02;9.65;;;;;;;;;;4162615;34;20521;-62
2022/04/29 15:53:18;;;;;;;15.18;9.57;;;;;;;;;;4127227;34;20623;-61
2022/04/29 15:55:46;;;;;;;18.40;10.60;;;;;;;;;;4162543;34;20884;-60
2022/04/29 15:58:15;;;;;;;9.38;4.72;;;;;;;;;;4162556;34;20106;-61
2022/04/29 16:00:42;;;;;;;6.05;3.92;;;;;;;;;;4162275;34;20088;-62
2022/04/29 16:03:08;;;;;;;10.43;5.37;;;;;;;;;;4163328;34;20204;-62
2022/04/29 16:05:34;;;;;;;9.98;5.18;;;;;;;;;;4164513;34;20535;-60